sensor_id;sensor_type;location;lat;lon;timestamp;temperature;humidity
23160;DHT22;11748;50.844;4.396;2023-01-10T00:01:08;6.70;99.90
23160;DHT22;11748;50.844;4.396;2023-01-10T00:03:33;6.70;99.90
23160;DHT22;11748;50.844;4.396;2023-01-10T00:05:59;6.60;99.90
23160;DHT22;11748;50.844;4.396;2023-01-10T00:08:26;6.60;99.90
23160;DHT22;11748;50.844;4.396;2023-01-10T00:10:51;6.60;99.90
23160;DHT22;11748;50.844;4.396;2023-01-10T00:13:17;6.60;99.90
23160;DHT22;11748;50.844;4.396;2023-01-10T00:15:54;6.60;99.90
23160;DHT22;11748;50.844;4.396;2023-01-10T00:18:20;6.60;99.90
23160;DHT22;11748;50.844;4.396;2023-01-10T00:20:47;6.60;99.90
23160;DHT22;11748;50.844;4.396;2023-01-10T00:23:13;6.50;99.90
23160;DHT22;11748;50.844;4.396;2023-01-10T00:25:39;6.50;99.90
23160;DHT22;11748;50.844;4.396;2023-01-10T00:28:06;6.50;99.90
23160;DHT22;11748;50.844;4.396;2023-01-10T00:30:49;6.50;99.90
23160;DHT22;11748;50.844;4.396;2023-01-10T00:33:34;6.70;99.90
23160;DHT22;11748;50.844;4.396;2023-01-10T00:36:03;6.60;99.90
23160;DHT22;11748;50.844;4.396;2023-01-10T00:38:29;6.60;99.90
23160;DHT22;11748;50.844;4.396;2023-01-10T00:40:57;6.60;99.90
23160;DHT22;11748;50.844;4.396;2023-01-10T00:43:23;6.70;99.90
23160;DHT22;11748;50.844;4.396;2023-01-10T00:46:08;6.80;99.90
23160;DHT22;11748;50.844;4.396;2023-01-10T00:48:34;7.00;99.90
23160;DHT22;11748;50.844;4.396;2023-01-10T00:50:59;7.00;99.90
23160;DHT22;11748;50.844;4.396;2023-01-10T00:53:25;7.10;99.90
23160;DHT22;11748;50.844;4.396;2023-01-10T00:55:52;7.10;99.90
23160;DHT22;11748;50.844;4.396;2023-01-10T00:58:19;7.20;99.90
23160;DHT22;11748;50.844;4.396;2023-01-10T01:00:45;7.10;99.90
23160;DHT22;11748;50.844;4.396;2023-01-10T01:03:12;7.20;99.90
23160;DHT22;11748;50.844;4.396;2023-01-10T01:05:42;7.20;99.90
23160;DHT22;11748;50.844;4.396;2023-01-10T01:08:09;7.10;99.90
23160;DHT22;11748;50.844;4.396;2023-01-10T01:10:35;7.20;99.90
23160;DHT22;11748;50.844;4.396;2023-01-10T01:15:33;7.20;99.90
23160;DHT22;11748;50.844;4.396;2023-01-10T01:18:03;7.10;99.90
23160;DHT22;11748;50.844;4.396;2023-01-10T01:20:29;7.10;99.90
23160;DHT22;11748;50.844;4.396;2023-01-10T01:22:55;7.20;99.90
23160;DHT22;11748;50.844;4.396;2023-01-10T01:25:21;7.20;99.90
23160;DHT22;11748;50.844;4.396;2023-01-10T01:27:47;7.10;99.90
23160;DHT22;11748;50.844;4.396;2023-01-10T01:30:13;6.90;99.90
23160;DHT22;11748;50.844;4.396;2023-01-10T01:32:39;6.90;99.90
23160;DHT22;11748;50.844;4.396;2023-01-10T01:35:06;6.80;99.90
23160;DHT22;11748;50.844;4.396;2023-01-10T01:37:33;6.80;99.90
23160;DHT22;11748;50.844;4.396;2023-01-10T01:39:58;6.70;99.90
23160;DHT22;11748;50.844;4.396;2023-01-10T01:42:27;6.70;99.90
23160;DHT22;11748;50.844;4.396;2023-01-10T01:50:55;6.70;99.90
23160;DHT22;11748;50.844;4.396;2023-01-10T01:56:23;6.60;99.90
23160;DHT22;11748;50.844;4.396;2023-01-10T01:59:07;6.60;99.90
23160;DHT22;11748;50.844;4.396;2023-01-10T02:01:36;6.60;99.90
23160;DHT22;11748;50.844;4.396;2023-01-10T02:04:19;6.70;99.90
23160;DHT22;11748;50.844;4.396;2023-01-10T02:06:47;6.70;99.90
23160;DHT22;11748;50.844;4.396;2023-01-10T02:09:32;6.70;99.90
23160;DHT22;11748;50.844;4.396;2023-01-10T02:12:00;6.70;99.90
23160;DHT22;11748;50.844;4.396;2023-01-10T02:14:27;6.70;99.90
23160;DHT22;11748;50.844;4.396;2023-01-10T02:16:53;6.70;99.90
23160;DHT22;11748;50.844;4.396;2023-01-10T02:19:32;6.70;99.90
23160;DHT22;11748;50.844;4.396;2023-01-10T02:31:02;6.70;99.90
23160;DHT22;11748;50.844;4.396;2023-01-10T02:41:44;6.50;99.90
23160;DHT22;11748;50.844;4.396;2023-01-10T02:44:20;6.40;99.90
23160;DHT22;11748;50.844;4.396;2023-01-10T02:46:50;6.50;99.90
23160;DHT22;11748;50.844;4.396;2023-01-10T02:49:17;6.50;99.90
23160;DHT22;11748;50.844;4.396;2023-01-10T02:51:43;6.50;99.90
23160;DHT22;11748;50.844;4.396;2023-01-10T02:54:15;6.40;99.90
23160;DHT22;11748;50.844;4.396;2023-01-10T03:10:13;6.40;99.90
23160;DHT22;11748;50.844;4.396;2023-01-10T03:12:57;6.40;99.90
23160;DHT22;11748;50.844;4.396;2023-01-10T03:15:29;6.40;99.90
23160;DHT22;11748;50.844;4.396;2023-01-10T03:17:58;6.30;99.90
23160;DHT22;11748;50.844;4.396;2023-01-10T03:20:26;6.40;99.90
23160;DHT22;11748;50.844;4.396;2023-01-10T03:22:54;6.50;99.90
23160;DHT22;11748;50.844;4.396;2023-01-10T03:25:23;6.60;99.90
23160;DHT22;11748;50.844;4.396;2023-01-10T03:28:15;6.50;99.90
23160;DHT22;11748;50.844;4.396;2023-01-10T03:31:02;6.50;99.90
23160;DHT22;11748;50.844;4.396;2023-01-10T03:33:31;6.60;99.90
23160;DHT22;11748;50.844;4.396;2023-01-10T03:36:06;6.60;99.90
23160;DHT22;11748;50.844;4.396;2023-01-10T03:41:14;6.80;99.90
23160;DHT22;11748;50.844;4.396;2023-01-10T03:47:01;6.70;99.90
23160;DHT22;11748;50.844;4.396;2023-01-10T03:49:29;6.70;99.90
23160;DHT22;11748;50.844;4.396;2023-01-10T03:51:56;6.70;99.90
23160;DHT22;11748;50.844;4.396;2023-01-10T03:54:23;6.90;99.90
23160;DHT22;11748;50.844;4.396;2023-01-10T03:56:50;6.90;99.90
23160;DHT22;11748;50.844;4.396;2023-01-10T03:59:25;6.70;99.90
23160;DHT22;11748;50.844;4.396;2023-01-10T04:01:53;6.40;99.90
23160;DHT22;11748;50.844;4.396;2023-01-10T04:04:20;6.40;99.90
23160;DHT22;11748;50.844;4.396;2023-01-10T04:06:45;6.30;99.90
23160;DHT22;11748;50.844;4.396;2023-01-10T04:09:11;6.40;99.90
23160;DHT22;11748;50.844;4.396;2023-01-10T04:11:37;6.50;99.90
23160;DHT22;11748;50.844;4.396;2023-01-10T04:14:03;6.40;99.90
23160;DHT22;11748;50.844;4.396;2023-01-10T04:16:29;6.60;99.90
23160;DHT22;11748;50.844;4.396;2023-01-10T04:18:55;6.50;99.90
23160;DHT22;11748;50.844;4.396;2023-01-10T04:21:21;6.40;99.90
23160;DHT22;11748;50.844;4.396;2023-01-10T04:23:47;6.30;99.90
23160;DHT22;11748;50.844;4.396;2023-01-10T04:26:12;6.40;99.90
23160;DHT22;11748;50.844;4.396;2023-01-10T04:28:38;6.30;99.90
23160;DHT22;11748;50.844;4.396;2023-01-10T04:31:04;6.30;99.90
23160;DHT22;11748;50.844;4.396;2023-01-10T04:33:30;6.20;99.90
23160;DHT22;11748;50.844;4.396;2023-01-10T04:35:56;6.30;99.90
23160;DHT22;11748;50.844;4.396;2023-01-10T04:38:22;6.20;99.90
23160;DHT22;11748;50.844;4.396;2023-01-10T04:40:52;6.10;99.90
23160;DHT22;11748;50.844;4.396;2023-01-10T04:43:18;6.20;99.90
23160;DHT22;11748;50.844;4.396;2023-01-10T04:45:44;6.10;99.90
23160;DHT22;11748;50.844;4.396;2023-01-10T04:48:11;6.30;99.90
23160;DHT22;11748;50.844;4.396;2023-01-10T04:50:36;6.40;99.90
23160;DHT22;11748;50.844;4.396;2023-01-10T04:53:02;6.40;99.90
23160;DHT22;11748;50.844;4.396;2023-01-10T04:55:28;6.40;99.90
23160;DHT22;11748;50.844;4.396;2023-01-10T04:57:54;6.50;99.90
23160;DHT22;11748;50.844;4.396;2023-01-10T05:00:19;6.40;99.90
23160;DHT22;11748;50.844;4.396;2023-01-10T05:02:45;6.50;99.90
23160;DHT22;11748;50.844;4.396;2023-01-10T05:05:12;6.60;99.90
23160;DHT22;11748;50.844;4.396;2023-01-10T05:07:38;6.70;99.90
23160;DHT22;11748;50.844;4.396;2023-01-10T05:10:06;6.60;99.90
23160;DHT22;11748;50.844;4.396;2023-01-10T05:12:32;6.70;99.90
23160;DHT22;11748;50.844;4.396;2023-01-10T05:14:58;6.70;99.90
23160;DHT22;11748;50.844;4.396;2023-01-10T05:17:24;6.80;99.90
23160;DHT22;11748;50.844;4.396;2023-01-10T05:19:49;6.90;99.90
23160;DHT22;11748;50.844;4.396;2023-01-10T05:22:15;6.90;99.90
23160;DHT22;11748;50.844;4.396;2023-01-10T05:24:41;6.90;99.90
23160;DHT22;11748;50.844;4.396;2023-01-10T05:27:06;6.80;99.90
23160;DHT22;11748;50.844;4.396;2023-01-10T05:29:34;6.80;99.90
23160;DHT22;11748;50.844;4.396;2023-01-10T05:31:59;6.80;99.90
23160;DHT22;11748;50.844;4.396;2023-01-10T05:34:25;6.90;99.90
23160;DHT22;11748;50.844;4.396;2023-01-10T05:36:51;6.80;99.90
23160;DHT22;11748;50.844;4.396;2023-01-10T05:39:17;6.70;99.90
23160;DHT22;11748;50.844;4.396;2023-01-10T05:41:42;6.80;99.90
23160;DHT22;11748;50.844;4.396;2023-01-10T05:44:08;6.90;99.90
23160;DHT22;11748;50.844;4.396;2023-01-10T05:46:34;6.80;99.90
23160;DHT22;11748;50.844;4.396;2023-01-10T05:49:00;6.80;99.90
23160;DHT22;11748;50.844;4.396;2023-01-10T05:51:25;6.80;99.90
23160;DHT22;11748;50.844;4.396;2023-01-10T05:53:51;6.80;99.90
23160;DHT22;11748;50.844;4.396;2023-01-10T05:56:17;6.90;99.90
23160;DHT22;11748;50.844;4.396;2023-01-10T05:58:43;6.80;99.90
23160;DHT22;11748;50.844;4.396;2023-01-10T06:01:08;6.70;99.90
23160;DHT22;11748;50.844;4.396;2023-01-10T06:03:35;6.80;99.90
23160;DHT22;11748;50.844;4.396;2023-01-10T06:06:00;6.80;99.90
23160;DHT22;11748;50.844;4.396;2023-01-10T06:08:27;6.80;99.90
23160;DHT22;11748;50.844;4.396;2023-01-10T06:10:53;6.80;99.90
23160;DHT22;11748;50.844;4.396;2023-01-10T06:13:19;6.80;99.90
23160;DHT22;11748;50.844;4.396;2023-01-10T06:15:45;6.80;99.90
23160;DHT22;11748;50.844;4.396;2023-01-10T06:18:11;6.80;99.90
23160;DHT22;11748;50.844;4.396;2023-01-10T06:20:37;6.70;99.90
23160;DHT22;11748;50.844;4.396;2023-01-10T06:23:02;6.80;99.90
23160;DHT22;11748;50.844;4.396;2023-01-10T06:25:30;6.70;99.90
23160;DHT22;11748;50.844;4.396;2023-01-10T06:27:56;6.70;99.90
23160;DHT22;11748;50.844;4.396;2023-01-10T06:30:21;6.70;99.90
23160;DHT22;11748;50.844;4.396;2023-01-10T06:32:47;6.60;99.90
23160;DHT22;11748;50.844;4.396;2023-01-10T06:35:13;6.60;99.90
23160;DHT22;11748;50.844;4.396;2023-01-10T06:37:39;6.60;99.90
23160;DHT22;11748;50.844;4.396;2023-01-10T06:40:05;6.60;99.90
23160;DHT22;11748;50.844;4.396;2023-01-10T06:42:31;6.50;99.90
23160;DHT22;11748;50.844;4.396;2023-01-10T06:44:56;6.60;99.90
23160;DHT22;11748;50.844;4.396;2023-01-10T06:47:22;6.60;99.90
23160;DHT22;11748;50.844;4.396;2023-01-10T06:49:48;6.60;99.90
23160;DHT22;11748;50.844;4.396;2023-01-10T06:52:13;6.40;99.90
23160;DHT22;11748;50.844;4.396;2023-01-10T06:54:39;6.40;99.90
23160;DHT22;11748;50.844;4.396;2023-01-10T06:57:07;6.50;99.90
23160;DHT22;11748;50.844;4.396;2023-01-10T06:59:33;6.50;99.90
23160;DHT22;11748;50.844;4.396;2023-01-10T07:01:58;6.50;99.90
23160;DHT22;11748;50.844;4.396;2023-01-10T07:04:24;6.50;99.90
23160;DHT22;11748;50.844;4.396;2023-01-10T07:06:51;6.50;99.90
23160;DHT22;11748;50.844;4.396;2023-01-10T07:09:17;6.60;99.90
23160;DHT22;11748;50.844;4.396;2023-01-10T07:11:43;6.60;99.90
23160;DHT22;11748;50.844;4.396;2023-01-10T07:14:09;6.60;99.90
23160;DHT22;11748;50.844;4.396;2023-01-10T07:16:35;6.50;99.90
23160;DHT22;11748;50.844;4.396;2023-01-10T07:19:00;6.40;99.90
23160;DHT22;11748;50.844;4.396;2023-01-10T07:21:26;6.30;99.90
23160;DHT22;11748;50.844;4.396;2023-01-10T07:23:52;6.30;99.90
23160;DHT22;11748;50.844;4.396;2023-01-10T07:26:18;6.30;99.90
23160;DHT22;11748;50.844;4.396;2023-01-10T07:28:47;6.30;99.90
23160;DHT22;11748;50.844;4.396;2023-01-10T07:31:20;6.30;99.90
23160;DHT22;11748;50.844;4.396;2023-01-10T07:33:51;6.10;99.90
23160;DHT22;11748;50.844;4.396;2023-01-10T07:36:17;6.00;99.90
23160;DHT22;11748;50.844;4.396;2023-01-10T07:38:43;5.90;99.90
23160;DHT22;11748;50.844;4.396;2023-01-10T07:41:09;5.80;99.90
23160;DHT22;11748;50.844;4.396;2023-01-10T07:43:34;5.70;99.90
23160;DHT22;11748;50.844;4.396;2023-01-10T07:46:02;5.70;99.90
23160;DHT22;11748;50.844;4.396;2023-01-10T07:48:29;5.90;99.90
23160;DHT22;11748;50.844;4.396;2023-01-10T07:50:59;6.10;99.90
23160;DHT22;11748;50.844;4.396;2023-01-10T07:53:27;6.30;99.90
23160;DHT22;11748;50.844;4.396;2023-01-10T07:55:53;6.40;99.90
23160;DHT22;11748;50.844;4.396;2023-01-10T07:58:19;6.40;99.90
23160;DHT22;11748;50.844;4.396;2023-01-10T08:00:45;6.50;99.90
23160;DHT22;11748;50.844;4.396;2023-01-10T08:03:11;6.60;99.90
23160;DHT22;11748;50.844;4.396;2023-01-10T08:05:38;6.70;99.90
23160;DHT22;11748;50.844;4.396;2023-01-10T08:08:06;6.80;99.90
23160;DHT22;11748;50.844;4.396;2023-01-10T08:10:33;6.70;99.90
23160;DHT22;11748;50.844;4.396;2023-01-10T08:12:59;6.80;99.90
23160;DHT22;11748;50.844;4.396;2023-01-10T08:15:25;6.90;99.90
23160;DHT22;11748;50.844;4.396;2023-01-10T08:17:52;6.90;99.90
23160;DHT22;11748;50.844;4.396;2023-01-10T08:20:18;6.90;99.90
23160;DHT22;11748;50.844;4.396;2023-01-10T08:22:44;6.90;99.90
23160;DHT22;11748;50.844;4.396;2023-01-10T08:25:10;7.00;99.90
23160;DHT22;11748;50.844;4.396;2023-01-10T08:27:36;7.10;99.90
23160;DHT22;11748;50.844;4.396;2023-01-10T08:30:03;7.20;99.90
23160;DHT22;11748;50.844;4.396;2023-01-10T08:32:30;7.20;99.90
23160;DHT22;11748;50.844;4.396;2023-01-10T08:34:55;7.20;99.90
23160;DHT22;11748;50.844;4.396;2023-01-10T08:37:21;7.20;99.90
23160;DHT22;11748;50.844;4.396;2023-01-10T08:39:47;7.20;99.90
23160;DHT22;11748;50.844;4.396;2023-01-10T08:42:13;7.10;99.90
23160;DHT22;11748;50.844;4.396;2023-01-10T08:44:43;7.10;99.90
23160;DHT22;11748;50.844;4.396;2023-01-10T08:47:09;7.10;99.90
23160;DHT22;11748;50.844;4.396;2023-01-10T08:49:35;7.10;99.90
23160;DHT22;11748;50.844;4.396;2023-01-10T08:52:01;7.20;99.90
23160;DHT22;11748;50.844;4.396;2023-01-10T08:54:27;7.20;99.90
23160;DHT22;11748;50.844;4.396;2023-01-10T08:56:53;7.30;99.90
23160;DHT22;11748;50.844;4.396;2023-01-10T08:59:18;7.30;99.90
23160;DHT22;11748;50.844;4.396;2023-01-10T09:01:50;7.40;99.90
23160;DHT22;11748;50.844;4.396;2023-01-10T09:04:22;7.40;99.90
23160;DHT22;11748;50.844;4.396;2023-01-10T09:06:50;7.50;99.90
23160;DHT22;11748;50.844;4.396;2023-01-10T09:09:19;7.40;99.90
23160;DHT22;11748;50.844;4.396;2023-01-10T09:11:51;7.40;99.90
23160;DHT22;11748;50.844;4.396;2023-01-10T09:14:17;7.40;99.90
23160;DHT22;11748;50.844;4.396;2023-01-10T09:16:49;7.60;99.90
23160;DHT22;11748;50.844;4.396;2023-01-10T09:19:19;7.60;99.90
23160;DHT22;11748;50.844;4.396;2023-01-10T09:21:46;7.50;99.90
23160;DHT22;11748;50.844;4.396;2023-01-10T09:24:17;7.50;99.90
23160;DHT22;11748;50.844;4.396;2023-01-10T09:26:46;7.60;99.90
23160;DHT22;11748;50.844;4.396;2023-01-10T09:29:12;7.70;99.90
23160;DHT22;11748;50.844;4.396;2023-01-10T09:31:37;7.80;99.90
23160;DHT22;11748;50.844;4.396;2023-01-10T09:34:09;7.90;99.90
23160;DHT22;11748;50.844;4.396;2023-01-10T09:36:37;7.80;99.90
23160;DHT22;11748;50.844;4.396;2023-01-10T09:39:03;7.90;99.90
23160;DHT22;11748;50.844;4.396;2023-01-10T09:41:59;7.80;99.90
23160;DHT22;11748;50.844;4.396;2023-01-10T09:50:27;8.10;99.90
23160;DHT22;11748;50.844;4.396;2023-01-10T09:53:04;8.10;99.90
23160;DHT22;11748;50.844;4.396;2023-01-10T09:55:40;8.20;99.90
23160;DHT22;11748;50.844;4.396;2023-01-10T09:58:28;8.30;99.90
23160;DHT22;11748;50.844;4.396;2023-01-10T10:01:11;8.30;99.90
23160;DHT22;11748;50.844;4.396;2023-01-10T10:04:04;8.30;99.90
23160;DHT22;11748;50.844;4.396;2023-01-10T10:06:34;8.40;99.90
23160;DHT22;11748;50.844;4.396;2023-01-10T10:09:03;8.40;99.90
23160;DHT22;11748;50.844;4.396;2023-01-10T10:12:24;8.50;99.90
23160;DHT22;11748;50.844;4.396;2023-01-10T10:14:53;8.50;99.90
23160;DHT22;11748;50.844;4.396;2023-01-10T10:17:40;8.60;99.90
23160;DHT22;11748;50.844;4.396;2023-01-10T10:26:16;8.40;99.90
23160;DHT22;11748;50.844;4.396;2023-01-10T10:34:39;8.70;99.90
23160;DHT22;11748;50.844;4.396;2023-01-10T10:42:19;9.00;99.90
23160;DHT22;11748;50.844;4.396;2023-01-10T10:45:05;8.90;99.90
23160;DHT22;11748;50.844;4.396;2023-01-10T10:47:35;9.00;99.90
23160;DHT22;11748;50.844;4.396;2023-01-10T10:52:34;8.90;99.90
23160;DHT22;11748;50.844;4.396;2023-01-10T10:55:03;9.00;99.90
23160;DHT22;11748;50.844;4.396;2023-01-10T10:57:33;9.20;99.90
23160;DHT22;11748;50.844;4.396;2023-01-10T11:00:03;9.20;99.90
23160;DHT22;11748;50.844;4.396;2023-01-10T11:02:31;9.30;99.90
23160;DHT22;11748;50.844;4.396;2023-01-10T11:05:15;9.30;99.90
23160;DHT22;11748;50.844;4.396;2023-01-10T11:07:42;9.30;99.90
23160;DHT22;11748;50.844;4.396;2023-01-10T11:10:22;9.30;99.90
23160;DHT22;11748;50.844;4.396;2023-01-10T11:13:20;9.40;99.90
23160;DHT22;11748;50.844;4.396;2023-01-10T11:15:51;9.30;99.90
23160;DHT22;11748;50.844;4.396;2023-01-10T11:18:23;9.30;99.90
23160;DHT22;11748;50.844;4.396;2023-01-10T11:20:53;9.30;99.90
23160;DHT22;11748;50.844;4.396;2023-01-10T11:31:55;9.40;99.90
23160;DHT22;11748;50.844;4.396;2023-01-10T11:34:29;9.30;99.90
23160;DHT22;11748;50.844;4.396;2023-01-10T11:37:01;9.30;99.90
23160;DHT22;11748;50.844;4.396;2023-01-10T11:39:30;9.40;99.90
23160;DHT22;11748;50.844;4.396;2023-01-10T11:41:56;9.50;99.90
23160;DHT22;11748;50.844;4.396;2023-01-10T11:44:26;9.50;99.90
23160;DHT22;11748;50.844;4.396;2023-01-10T11:46:58;9.60;99.90
23160;DHT22;11748;50.844;4.396;2023-01-10T11:49:40;9.50;99.90
23160;DHT22;11748;50.844;4.396;2023-01-10T11:54:42;9.60;99.90
23160;DHT22;11748;50.844;4.396;2023-01-10T11:57:16;9.70;99.90
23160;DHT22;11748;50.844;4.396;2023-01-10T11:59:57;9.80;99.90
23160;DHT22;11748;50.844;4.396;2023-01-10T12:04:54;9.90;99.90
23160;DHT22;11748;50.844;4.396;2023-01-10T12:07:21;10.00;99.90
23160;DHT22;11748;50.844;4.396;2023-01-10T12:09:55;10.00;99.90
23160;DHT22;11748;50.844;4.396;2023-01-10T12:12:32;10.00;99.90
23160;DHT22;11748;50.844;4.396;2023-01-10T12:15:21;10.00;99.90
23160;DHT22;11748;50.844;4.396;2023-01-10T12:17:49;9.90;99.90
23160;DHT22;11748;50.844;4.396;2023-01-10T12:20:15;9.90;99.90
23160;DHT22;11748;50.844;4.396;2023-01-10T12:22:48;9.90;99.90
23160;DHT22;11748;50.844;4.396;2023-01-10T12:25:21;9.90;99.90
23160;DHT22;11748;50.844;4.396;2023-01-10T12:27:47;9.80;99.90
23160;DHT22;11748;50.844;4.396;2023-01-10T12:30:20;9.80;99.90
23160;DHT22;11748;50.844;4.396;2023-01-10T12:32:51;9.90;99.90
23160;DHT22;11748;50.844;4.396;2023-01-10T12:38:28;9.90;99.90
23160;DHT22;11748;50.844;4.396;2023-01-10T12:41:21;10.00;99.90
23160;DHT22;11748;50.844;4.396;2023-01-10T12:44:21;9.90;99.90
23160;DHT22;11748;50.844;4.396;2023-01-10T12:47:01;9.90;99.90
23160;DHT22;11748;50.844;4.396;2023-01-10T12:49:52;9.80;99.90
23160;DHT22;11748;50.844;4.396;2023-01-10T12:55:21;9.70;99.90
23160;DHT22;11748;50.844;4.396;2023-01-10T12:57:56;9.60;99.90
23160;DHT22;11748;50.844;4.396;2023-01-10T13:00:26;9.60;99.90
23160;DHT22;11748;50.844;4.396;2023-01-10T13:02:55;9.60;99.90
23160;DHT22;11748;50.844;4.396;2023-01-10T13:05:25;9.60;99.90
23160;DHT22;11748;50.844;4.396;2023-01-10T13:07:55;9.40;99.90
23160;DHT22;11748;50.844;4.396;2023-01-10T13:10:24;9.30;99.90
23160;DHT22;11748;50.844;4.396;2023-01-10T13:12:58;9.20;99.90
23160;DHT22;11748;50.844;4.396;2023-01-10T13:18:32;9.50;99.90
23160;DHT22;11748;50.844;4.396;2023-01-10T13:21:11;9.50;99.90
23160;DHT22;11748;50.844;4.396;2023-01-10T13:23:50;9.50;99.90
23160;DHT22;11748;50.844;4.396;2023-01-10T13:26:17;9.50;99.90
23160;DHT22;11748;50.844;4.396;2023-01-10T13:28:57;9.50;99.90
23160;DHT22;11748;50.844;4.396;2023-01-10T13:31:30;9.40;99.90
23160;DHT22;11748;50.844;4.396;2023-01-10T13:34:04;9.30;99.90
23160;DHT22;11748;50.844;4.396;2023-01-10T13:36:40;9.30;99.90
23160;DHT22;11748;50.844;4.396;2023-01-10T13:40:02;9.30;99.90
23160;DHT22;11748;50.844;4.396;2023-01-10T13:52:51;9.20;99.90
23160;DHT22;11748;50.844;4.396;2023-01-10T13:55:31;9.20;99.90
23160;DHT22;11748;50.844;4.396;2023-01-10T13:58:02;9.20;99.90
23160;DHT22;11748;50.844;4.396;2023-01-10T14:03:54;9.00;99.90
23160;DHT22;11748;50.844;4.396;2023-01-10T14:06:34;9.00;99.90
23160;DHT22;11748;50.844;4.396;2023-01-10T14:11:55;8.90;99.90
23160;DHT22;11748;50.844;4.396;2023-01-10T14:17:09;8.90;99.90
23160;DHT22;11748;50.844;4.396;2023-01-10T14:19:36;8.80;99.90
23160;DHT22;11748;50.844;4.396;2023-01-10T14:22:03;8.60;99.90
23160;DHT22;11748;50.844;4.396;2023-01-10T14:24:41;8.60;99.90
23160;DHT22;11748;50.844;4.396;2023-01-10T14:27:18;8.60;99.90
23160;DHT22;11748;50.844;4.396;2023-01-10T14:29:51;8.60;99.90
23160;DHT22;11748;50.844;4.396;2023-01-10T14:32:36;8.60;99.90
23160;DHT22;11748;50.844;4.396;2023-01-10T14:35:07;8.60;99.90
23160;DHT22;11748;50.844;4.396;2023-01-10T14:37:57;8.70;99.90
23160;DHT22;11748;50.844;4.396;2023-01-10T14:40:43;8.60;99.90
23160;DHT22;11748;50.844;4.396;2023-01-10T14:43:15;8.50;99.90
23160;DHT22;11748;50.844;4.396;2023-01-10T14:45:57;8.60;99.90
23160;DHT22;11748;50.844;4.396;2023-01-10T14:48:25;8.60;99.90
23160;DHT22;11748;50.844;4.396;2023-01-10T14:51:12;8.60;99.90
23160;DHT22;11748;50.844;4.396;2023-01-10T14:56:44;8.60;99.90
23160;DHT22;11748;50.844;4.396;2023-01-10T15:01:46;8.70;99.90
23160;DHT22;11748;50.844;4.396;2023-01-10T15:04:17;8.70;99.90
23160;DHT22;11748;50.844;4.396;2023-01-10T15:09:25;8.70;99.90
23160;DHT22;11748;50.844;4.396;2023-01-10T15:11:52;8.70;99.90
23160;DHT22;11748;50.844;4.396;2023-01-10T15:14:20;8.60;99.90
23160;DHT22;11748;50.844;4.396;2023-01-10T15:16:48;8.60;99.90
23160;DHT22;11748;50.844;4.396;2023-01-10T15:19:20;8.50;99.90
23160;DHT22;11748;50.844;4.396;2023-01-10T15:21:47;8.40;99.90
23160;DHT22;11748;50.844;4.396;2023-01-10T15:27:10;8.30;99.90
23160;DHT22;11748;50.844;4.396;2023-01-10T15:29:38;8.30;99.90
23160;DHT22;11748;50.844;4.396;2023-01-10T15:32:36;8.50;99.90
23160;DHT22;11748;50.844;4.396;2023-01-10T15:35:03;8.50;99.90
23160;DHT22;11748;50.844;4.396;2023-01-10T15:37:32;8.50;99.90
23160;DHT22;11748;50.844;4.396;2023-01-10T15:40:01;8.50;99.90
23160;DHT22;11748;50.844;4.396;2023-01-10T15:42:28;8.50;99.90
23160;DHT22;11748;50.844;4.396;2023-01-10T15:44:54;8.50;99.90
23160;DHT22;11748;50.844;4.396;2023-01-10T15:47:37;8.50;99.90
23160;DHT22;11748;50.844;4.396;2023-01-10T15:50:24;8.50;99.90
23160;DHT22;11748;50.844;4.396;2023-01-10T15:53:03;8.50;99.90
23160;DHT22;11748;50.844;4.396;2023-01-10T15:55:48;8.50;99.90
23160;DHT22;11748;50.844;4.396;2023-01-10T15:58:34;8.50;99.90
23160;DHT22;11748;50.844;4.396;2023-01-10T16:01:01;8.50;99.90
23160;DHT22;11748;50.844;4.396;2023-01-10T16:03:38;8.60;99.90
23160;DHT22;11748;50.844;4.396;2023-01-10T16:06:20;8.60;99.90
23160;DHT22;11748;50.844;4.396;2023-01-10T16:08:49;8.60;99.90
23160;DHT22;11748;50.844;4.396;2023-01-10T16:11:39;8.60;99.90
23160;DHT22;11748;50.844;4.396;2023-01-10T16:14:25;8.60;99.90
23160;DHT22;11748;50.844;4.396;2023-01-10T16:16:51;8.60;99.90
23160;DHT22;11748;50.844;4.396;2023-01-10T16:19:17;8.70;99.90
23160;DHT22;11748;50.844;4.396;2023-01-10T16:21:46;8.70;99.90
23160;DHT22;11748;50.844;4.396;2023-01-10T16:24:21;8.50;99.90
23160;DHT22;11748;50.844;4.396;2023-01-10T16:26:48;8.50;99.90
23160;DHT22;11748;50.844;4.396;2023-01-10T16:29:14;8.40;99.90
23160;DHT22;11748;50.844;4.396;2023-01-10T16:31:40;8.50;99.90
23160;DHT22;11748;50.844;4.396;2023-01-10T16:34:06;8.70;99.90
23160;DHT22;11748;50.844;4.396;2023-01-10T16:36:32;8.80;99.90
23160;DHT22;11748;50.844;4.396;2023-01-10T16:39:05;8.90;99.90
23160;DHT22;11748;50.844;4.396;2023-01-10T16:41:31;8.90;99.90
23160;DHT22;11748;50.844;4.396;2023-01-10T16:44:15;8.90;99.90
23160;DHT22;11748;50.844;4.396;2023-01-10T16:46:43;8.90;99.90
23160;DHT22;11748;50.844;4.396;2023-01-10T16:49:12;8.80;99.90
23160;DHT22;11748;50.844;4.396;2023-01-10T16:51:46;8.80;99.90
23160;DHT22;11748;50.844;4.396;2023-01-10T16:54:20;8.90;99.90
23160;DHT22;11748;50.844;4.396;2023-01-10T16:56:47;9.00;99.90
23160;DHT22;11748;50.844;4.396;2023-01-10T16:59:14;9.10;99.90
23160;DHT22;11748;50.844;4.396;2023-01-10T17:01:55;9.00;99.90
23160;DHT22;11748;50.844;4.396;2023-01-10T17:04:26;8.90;99.90
23160;DHT22;11748;50.844;4.396;2023-01-10T17:06:56;8.90;99.90
23160;DHT22;11748;50.844;4.396;2023-01-10T17:09:29;9.00;99.90
23160;DHT22;11748;50.844;4.396;2023-01-10T17:12:02;9.00;99.90
23160;DHT22;11748;50.844;4.396;2023-01-10T17:14:34;9.10;99.90
23160;DHT22;11748;50.844;4.396;2023-01-10T17:17:06;9.10;99.90
23160;DHT22;11748;50.844;4.396;2023-01-10T17:19:31;9.20;99.90
23160;DHT22;11748;50.844;4.396;2023-01-10T17:21:57;9.10;99.90
23160;DHT22;11748;50.844;4.396;2023-01-10T17:24:24;9.10;99.90
23160;DHT22;11748;50.844;4.396;2023-01-10T17:26:50;9.20;99.90
23160;DHT22;11748;50.844;4.396;2023-01-10T17:29:15;9.40;99.90
23160;DHT22;11748;50.844;4.396;2023-01-10T17:31:42;9.40;99.90
23160;DHT22;11748;50.844;4.396;2023-01-10T17:34:08;9.40;99.90
23160;DHT22;11748;50.844;4.396;2023-01-10T17:36:34;9.40;99.90
23160;DHT22;11748;50.844;4.396;2023-01-10T17:39:03;9.40;99.90
23160;DHT22;11748;50.844;4.396;2023-01-10T17:41:29;9.40;99.90
23160;DHT22;11748;50.844;4.396;2023-01-10T17:43:55;9.40;99.90
23160;DHT22;11748;50.844;4.396;2023-01-10T17:46:20;9.30;99.90
23160;DHT22;11748;50.844;4.396;2023-01-10T17:48:46;9.30;99.90
23160;DHT22;11748;50.844;4.396;2023-01-10T17:51:12;9.30;99.90
23160;DHT22;11748;50.844;4.396;2023-01-10T17:53:44;9.40;99.90
23160;DHT22;11748;50.844;4.396;2023-01-10T17:56:10;9.50;99.90
23160;DHT22;11748;50.844;4.396;2023-01-10T17:58:36;9.60;99.90
23160;DHT22;11748;50.844;4.396;2023-01-10T18:01:01;9.70;99.90
23160;DHT22;11748;50.844;4.396;2023-01-10T18:03:41;9.70;99.90
23160;DHT22;11748;50.844;4.396;2023-01-10T18:06:08;9.70;99.90
23160;DHT22;11748;50.844;4.396;2023-01-10T18:08:34;9.60;99.90
23160;DHT22;11748;50.844;4.396;2023-01-10T18:11:03;9.60;99.90